createdAt,value
2017-10-27T00:00:00.063Z,97.47
2017-10-27T00:01:00.076Z,97.47
2017-10-27T00:02:00.045Z,97.47
2017-10-27T00:03:00.045Z,97.18
2017-10-27T00:04:00.030Z,97.56
2017-10-27T00:05:00.024Z,97.66
2017-10-27T00:06:00.018Z,97.37
2017-10-27T00:07:00.008Z,97.27
2017-10-27T00:07:59.678Z,97.27
2017-10-27T00:08:59.671Z,97.18
2017-10-27T00:09:59.984Z,97.18
2017-10-27T00:10:59.977Z,96.98
2017-10-27T00:11:59.971Z,97.47
2017-10-27T00:12:59.964Z,97.47
2017-10-27T00:13:59.953Z,96.8
2017-10-27T00:14:59.950Z,96.89
2017-10-27T00:16:00.239Z,97.37
2017-10-27T00:16:59.936Z,96.89
2017-10-27T00:17:59.927Z,97.37
2017-10-27T00:18:59.918Z,96.61
2017-10-27T00:19:59.587Z,97.18
2017-10-27T00:20:59.914Z,97.18
2017-10-27T00:21:59.894Z,97.18
2017-10-27T00:22:59.889Z,97.18
2017-10-27T00:23:59.879Z,97.27
2017-10-27T00:24:59.877Z,96.98
2017-10-27T00:25:59.867Z,97.27
2017-10-27T00:26:59.856Z,97.18
2017-10-27T00:27:59.852Z,97.75
2017-10-27T00:28:59.845Z,97.66
2017-10-27T00:29:59.835Z,97.37
2017-10-27T00:30:59.834Z,97.66
2017-10-27T00:31:59.822Z,97.37
2017-10-27T00:32:59.816Z,97.18
2017-10-27T00:33:59.480Z,97.18
2017-10-27T00:34:59.794Z,97.13
2017-10-27T00:35:59.787Z,96.98
2017-10-27T00:36:59.782Z,97.22
2017-10-27T00:37:59.775Z,97.08
2017-10-27T00:38:59.769Z,97.27
2017-10-27T00:39:59.757Z,97.37
2017-10-27T00:40:59.755Z,97.13
2017-10-27T00:41:59.745Z,97.18
2017-10-27T00:42:59.732Z,97.13
2017-10-27T00:43:59.729Z,97.32
2017-10-27T00:44:59.724Z,97.51
2017-10-27T00:45:59.712Z,97.22
2017-10-27T00:46:59.706Z,97.42
2017-10-27T00:47:59.710Z,97.51
2017-10-27T00:48:59.689Z,97.51
2017-10-27T00:49:59.679Z,97.13
2017-10-27T00:50:59.672Z,97.42
2017-10-27T00:51:59.667Z,97.42
2017-10-27T00:52:59.663Z,97.51
2017-10-27T00:53:59.327Z,97.51
2017-10-27T00:54:59.640Z,97.8
2017-10-27T00:55:59.633Z,97.99
2017-10-27T00:56:59.627Z,97.8
2017-10-27T00:57:59.625Z,97.8
2017-10-27T00:58:59.611Z,97.71
2017-10-27T00:59:59.286Z,97.8
2017-10-27T01:00:59.594Z,97.8
2017-10-27T01:01:59.585Z,97.51
2017-10-27T01:02:59.578Z,97.51
2017-10-27T01:03:59.580Z,97.51
2017-10-27T01:04:59.240Z,97.8
2017-10-27T01:05:59.553Z,97.8
2017-10-27T01:06:59.562Z,98.27
2017-10-27T01:07:59.540Z,98.37
2017-10-27T01:08:59.533Z,98.18
2017-10-27T01:09:59.523Z,98.37
2017-10-27T01:10:59.514Z,98.08
2017-10-27T01:11:59.507Z,98.08
2017-10-27T01:12:59.501Z,97.89
2017-10-27T01:13:59.169Z,98.08
2017-10-27T01:14:59.480Z,98.08
2017-10-27T01:15:59.479Z,97.99
2017-10-27T01:16:59.467Z,97.89
2017-10-27T01:17:59.461Z,98.08
2017-10-27T01:18:59.456Z,97.99
2017-10-27T01:19:59.444Z,97.51
2017-10-27T01:20:59.438Z,97.42
2017-10-27T01:21:59.104Z,97.89
2017-10-27T01:22:59.421Z,97.89
2017-10-27T01:23:59.413Z,97.71
2017-10-27T01:24:59.406Z,97.61
2017-10-27T01:25:59.074Z,97.8
2017-10-27T01:26:59.389Z,97.51
2017-10-27T01:27:59.378Z,97.61
2017-10-27T01:28:59.375Z,97.51
2017-10-27T01:29:59.365Z,97.51
2017-10-27T01:30:59.362Z,97.51
2017-10-27T01:31:59.351Z,97.32
2017-10-27T01:32:59.341Z,97.42
2017-10-27T01:33:59.013Z,97.42
2017-10-27T01:34:59.324Z,97.89
2017-10-27T01:35:59.003Z,97.61
2017-10-27T01:36:59.307Z,97.71
2017-10-27T01:37:58.977Z,97.71
2017-10-27T01:38:59.296Z,97.85
2017-10-27T01:39:58.964Z,98.03
2017-10-27T01:40:59.283Z,97.85
2017-10-27T01:41:59.268Z,97.94
2017-10-27T01:42:58.941Z,97.94
2017-10-27T01:43:58.929Z,97.46
2017-10-27T01:44:59.245Z,98.42
2017-10-27T01:45:58.915Z,97.85
2017-10-27T01:46:59.227Z,97.85
2017-10-27T01:47:59.222Z,97.85
2017-10-27T01:48:59.211Z,97.66
2017-10-27T01:49:59.204Z,97.94
2017-10-27T01:50:59.193Z,97.85
2017-10-27T01:51:59.190Z,98.08
2017-10-27T01:52:59.178Z,98.03
2017-10-27T01:53:59.169Z,97.75
2017-10-27T01:54:59.164Z,97.99
2017-10-27T01:55:58.834Z,97.71
2017-10-27T01:56:58.826Z,97.8
2017-10-27T01:57:59.140Z,97.42
2017-10-27T01:58:59.141Z,97.89
2017-10-27T01:59:59.125Z,97.8
2017-10-27T02:00:59.119Z,97.32
2017-10-27T02:01:59.109Z,97.61
2017-10-27T02:02:59.100Z,97.42
2017-10-27T02:03:59.096Z,97.71
2017-10-27T02:04:59.082Z,97.51
2017-10-27T02:05:59.075Z,97.32
2017-10-27T02:06:59.074Z,96.94
2017-10-27T02:07:59.057Z,97.22
2017-10-27T02:08:59.049Z,96.66
2017-10-27T02:09:59.052Z,96.66
2017-10-27T02:10:59.038Z,96.75
2017-10-27T02:11:59.025Z,97.32
2017-10-27T02:12:59.022Z,96.84
2017-10-27T02:13:59.014Z,97.32
2017-10-27T02:14:59.005Z,97.32
2017-10-27T02:15:58.998Z,97.13
2017-10-27T02:16:58.989Z,97.32
2017-10-27T02:17:58.977Z,96.75
2017-10-27T02:18:58.972Z,96.94
2017-10-27T02:19:58.963Z,96.84
2017-10-27T02:20:58.954Z,97.32
2017-10-27T02:21:58.625Z,97.03
2017-10-27T02:22:58.940Z,96.56
2017-10-27T02:23:58.934Z,96.56
2017-10-27T02:24:58.927Z,96.46
2017-10-27T02:25:58.914Z,96.66
2017-10-27T02:26:58.907Z,96.75
2017-10-27T02:27:58.577Z,96.66
2017-10-27T02:28:58.895Z,96.27
2017-10-27T02:29:58.885Z,96.27
2017-10-27T02:30:58.555Z,96.27
2017-10-27T02:31:58.870Z,96.46
2017-10-27T02:32:58.871Z,96.27
2017-10-27T02:33:58.856Z,95.89
2017-10-27T02:34:58.858Z,96.08
2017-10-27T02:35:58.839Z,96.08
2017-10-27T02:36:58.826Z,96.37
2017-10-27T02:37:58.818Z,96.37
2017-10-27T02:38:58.813Z,96.27
2017-10-27T02:39:58.808Z,96.08
2017-10-27T02:40:58.793Z,96.17
2017-10-27T02:41:58.795Z,96.27
2017-10-27T02:42:58.459Z,96.17
2017-10-27T02:43:58.777Z,96.08
2017-10-27T02:44:58.800Z,96.17
2017-10-27T02:45:58.758Z,96.27
2017-10-27T02:46:58.750Z,96.17
2017-10-27T02:47:58.741Z,96.17
2017-10-27T02:48:58.739Z,96.08
2017-10-27T02:49:58.734Z,95.98
2017-10-27T02:50:58.723Z,96.17
2017-10-27T02:51:58.960Z,96.13
2017-10-27T02:52:58.703Z,95.98
2017-10-27T02:53:58.693Z,95.7
2017-10-27T02:54:58.689Z,95.36
2017-10-27T02:55:58.677Z,95.36
2017-10-27T02:56:58.672Z,95.27
2017-10-27T02:57:58.666Z,95.56
2017-10-27T02:58:58.333Z,95.22
2017-10-27T02:59:58.650Z,95.36
2017-10-27T03:00:58.638Z,95.17
2017-10-27T03:01:58.631Z,94.89
2017-10-27T03:02:58.624Z,94.98
2017-10-27T03:03:58.616Z,95.27
2017-10-27T03:04:58.619Z,94.89
2017-10-27T03:05:58.612Z,95.17
2017-10-27T03:06:58.607Z,95.36
2017-10-27T03:07:58.588Z,95.08
2017-10-27T03:08:58.577Z,95.27
2017-10-27T03:09:58.570Z,95.27
2017-10-27T03:10:58.561Z,94.79
2017-10-27T03:11:58.553Z,94.89
2017-10-27T03:12:58.548Z,95.17
2017-10-27T03:13:58.542Z,94.98
2017-10-27T03:14:58.544Z,95.08
2017-10-27T03:15:58.522Z,94.79
2017-10-27T03:16:58.513Z,95.08
2017-10-27T03:17:58.184Z,94.89
2017-10-27T03:18:58.500Z,95.27
2017-10-27T03:19:58.491Z,95.08
2017-10-27T03:20:58.487Z,95.46
2017-10-27T03:21:58.478Z,95.65
2017-10-27T03:22:58.730Z,95.65
2017-10-27T03:23:58.462Z,95.94
2017-10-27T03:24:58.451Z,95.46
2017-10-27T03:25:58.443Z,95.41
2017-10-27T03:26:58.437Z,95.22
2017-10-27T03:27:58.430Z,95.46
2017-10-27T03:28:58.099Z,95.75
2017-10-27T03:29:58.421Z,95.46
2017-10-27T03:30:58.410Z,95.46
2017-10-27T03:31:58.399Z,95.32
2017-10-27T03:32:58.394Z,95.75
2017-10-27T03:33:58.388Z,95.41
2017-10-27T03:34:58.384Z,95.46
2017-10-27T03:35:58.370Z,95.51
2017-10-27T03:36:58.359Z,95.46
2017-10-27T03:37:58.353Z,95.41
2017-10-27T03:38:58.343Z,95.46
2017-10-27T03:39:58.340Z,95.65
2017-10-27T03:40:58.330Z,95.27
2017-10-27T03:41:58.000Z,95.32
2017-10-27T03:42:58.312Z,95.17
2017-10-27T03:43:58.306Z,95.22
2017-10-27T03:44:58.300Z,95.46
2017-10-27T03:45:58.293Z,95.65
2017-10-27T03:46:58.285Z,95.61
2017-10-27T03:47:58.273Z,95.41
2017-10-27T03:48:58.268Z,95.51
2017-10-27T03:49:58.262Z,95.36
2017-10-27T03:50:58.253Z,95.51
2017-10-27T03:51:58.243Z,95.36
2017-10-27T03:52:58.245Z,95.51
2017-10-27T03:53:58.489Z,95.51
2017-10-27T03:54:58.221Z,95.51
2017-10-27T03:55:58.221Z,95.89
2017-10-27T03:56:58.204Z,95.51
2017-10-27T03:57:58.200Z,95.79
2017-10-27T03:58:58.188Z,95.22
2017-10-27T03:59:58.183Z,96.32
2017-10-27T04:00:58.173Z,95.46
2017-10-27T04:01:58.165Z,95.32
2017-10-27T04:02:58.159Z,96.13
2017-10-27T04:03:58.153Z,96.13
2017-10-27T04:04:58.144Z,96.27
2017-10-27T04:05:58.134Z,96.27
2017-10-27T04:06:58.126Z,95.27
2017-10-27T04:07:58.124Z,96.13
2017-10-27T04:08:58.116Z,95.22
2017-10-27T04:09:58.108Z,95.94
2017-10-27T04:10:58.096Z,95.65
2017-10-27T04:11:58.119Z,95.7
2017-10-27T04:12:58.081Z,95.94
2017-10-27T04:13:58.073Z,95.36
2017-10-27T04:14:57.743Z,96.42
2017-10-27T04:15:58.060Z,96.13
2017-10-27T04:16:58.047Z,95.89
2017-10-27T04:17:58.047Z,96.03
2017-10-27T04:18:58.033Z,96.08
2017-10-27T04:19:58.024Z,96.42
2017-10-27T04:20:58.020Z,95.32
2017-10-27T04:21:58.009Z,95.65
2017-10-27T04:22:58.000Z,95.56
2017-10-27T04:23:58.004Z,95.36
2017-10-27T04:24:58.236Z,95.46
2017-10-27T04:25:57.984Z,95.27
2017-10-27T04:26:57.972Z,95.56
2017-10-27T04:27:57.964Z,95.46
2017-10-27T04:28:57.958Z,95.36
2017-10-27T04:29:57.947Z,95.65
2017-10-27T04:30:57.618Z,95.27
2017-10-27T04:31:57.610Z,95.65
2017-10-27T04:32:57.925Z,95.36
2017-10-27T04:33:57.599Z,95.41
2017-10-27T04:34:57.910Z,95.65
2017-10-27T04:35:57.900Z,95.17
2017-10-27T04:36:57.571Z,95.46
2017-10-27T04:37:57.891Z,95.46
2017-10-27T04:38:57.882Z,95.46
2017-10-27T04:39:57.877Z,95.36
2017-10-27T04:40:57.867Z,95.36
2017-10-27T04:41:57.536Z,95.51
2017-10-27T04:42:57.523Z,95.65
2017-10-27T04:43:57.841Z,95.51
2017-10-27T04:44:57.832Z,95.65
2017-10-27T04:45:57.824Z,95.61
2017-10-27T04:46:57.820Z,95.79
2017-10-27T04:47:57.808Z,96.27
2017-10-27T04:48:57.804Z,96.17
2017-10-27T04:49:57.793Z,96.27
2017-10-27T04:50:57.786Z,95.89
2017-10-27T04:51:57.779Z,95.89
2017-10-27T04:52:57.776Z,96.08
2017-10-27T04:53:57.762Z,96.08
2017-10-27T04:54:57.754Z,96.46
2017-10-27T04:55:57.745Z,96.17
2017-10-27T04:56:57.739Z,96.46
2017-10-27T04:57:57.733Z,96.56
2017-10-27T04:58:57.718Z,97.32
2017-10-27T04:59:57.716Z,97.03
2017-10-27T05:00:57.706Z,96.75
2017-10-27T05:01:57.700Z,96.66
2017-10-27T05:02:57.691Z,96.84
2017-10-27T05:03:57.360Z,97.32
2017-10-27T05:04:57.673Z,97.13
2017-10-27T05:05:57.669Z,97.03
2017-10-27T05:06:57.661Z,97.71
2017-10-27T05:07:57.654Z,97.61
2017-10-27T05:08:57.641Z,97.61
2017-10-27T05:09:57.640Z,97.22
2017-10-27T05:10:57.633Z,97.22
2017-10-27T05:11:57.620Z,97.22
2017-10-27T05:12:57.612Z,97.13
2017-10-27T05:13:57.280Z,96.94
2017-10-27T05:14:57.595Z,96.94
2017-10-27T05:15:57.586Z,97.13
2017-10-27T05:16:57.582Z,97.32
2017-10-27T05:17:57.579Z,97.99
2017-10-27T05:18:57.563Z,98.18
2017-10-27T05:19:57.556Z,98.85
2017-10-27T05:20:57.546Z,99.13
2017-10-27T05:21:57.542Z,99.04
2017-10-27T05:22:57.534Z,99.71
2017-10-27T05:23:57.523Z,99.52
2017-10-27T05:24:57.524Z,99.99
2017-10-27T05:25:57.511Z,99.99
2017-10-27T05:26:57.501Z,99.99
2017-10-27T05:27:57.169Z,99.9
2017-10-27T05:28:57.484Z,99.99
2017-10-27T05:29:57.477Z,99.8
2017-10-27T05:30:57.467Z,99.99
2017-10-27T05:31:57.460Z,99.99
2017-10-27T05:32:57.454Z,99.99
2017-10-27T05:33:57.447Z,99.99
2017-10-27T05:34:57.436Z,99.71
2017-10-27T05:35:57.425Z,99.9
2017-10-27T05:36:57.098Z,99.8
2017-10-27T05:37:57.411Z,99.71
2017-10-27T05:38:57.405Z,99.75
2017-10-27T05:39:57.398Z,99.66
2017-10-27T05:40:57.388Z,99.71
2017-10-27T05:41:57.380Z,99.66
2017-10-27T05:42:57.370Z,99.75
2017-10-27T05:43:57.365Z,99.46
2017-10-27T05:44:57.033Z,99.99
2017-10-27T05:45:57.356Z,99.66
2017-10-27T05:46:57.353Z,99.46
2017-10-27T05:47:57.330Z,99.56
2017-10-27T05:48:57.324Z,99.66
2017-10-27T05:49:57.313Z,99.46
2017-10-27T05:50:57.310Z,99.85
2017-10-27T05:51:57.296Z,99.85
2017-10-27T05:52:56.970Z,99.99
2017-10-27T05:53:57.291Z,99.89
2017-10-27T05:54:56.953Z,99.99
2017-10-27T05:55:57.265Z,99.89
2017-10-27T05:56:57.268Z,99.8
2017-10-27T05:57:57.250Z,99.99
2017-10-27T05:58:57.267Z,99.7
2017-10-27T05:59:56.910Z,99.7
2017-10-27T06:00:57.226Z,99.89
2017-10-27T06:01:57.217Z,99.89
2017-10-27T06:02:56.884Z,99.99
2017-10-27T06:03:57.199Z,99.89
2017-10-27T06:04:57.192Z,99.99
2017-10-27T06:05:57.181Z,99.41
2017-10-27T06:06:56.851Z,99.56
2017-10-27T06:07:56.840Z,99.75
2017-10-27T06:08:56.834Z,99.46
2017-10-27T06:09:57.184Z,99.37
2017-10-27T06:10:57.146Z,99.37
2017-10-27T06:11:57.133Z,99.08
2017-10-27T06:12:57.122Z,99.08
2017-10-27T06:13:57.116Z,99.56
2017-10-27T06:14:57.111Z,99.46
2017-10-27T06:15:57.096Z,99.18
2017-10-27T06:16:56.765Z,98.7
2017-10-27T06:17:56.756Z,98.9
2017-10-27T06:18:57.073Z,98.8
2017-10-27T06:19:57.062Z,98.85
2017-10-27T06:20:57.062Z,98.99
2017-10-27T06:21:57.050Z,98.7
2017-10-27T06:22:56.713Z,98.99
2017-10-27T06:23:57.028Z,98.9
2017-10-27T06:24:57.024Z,98.9
2017-10-27T06:25:57.010Z,98.8
2017-10-27T06:26:57.004Z,98.9
2017-10-27T06:27:56.994Z,98.7
2017-10-27T06:28:56.989Z,98.8
2017-10-27T06:29:56.983Z,98.8
2017-10-27T06:30:56.973Z,98.9
2017-10-27T06:31:56.965Z,99.18
2017-10-27T06:32:56.955Z,98.51
2017-10-27T06:33:56.943Z,98.61
2017-10-27T06:34:56.965Z,98.61
2017-10-27T06:35:56.926Z,98.03
2017-10-27T06:36:56.920Z,98.22
2017-10-27T06:37:56.913Z,98.03
2017-10-27T06:38:56.903Z,98.51
2017-10-27T06:39:56.893Z,98.03
2017-10-27T06:40:56.888Z,97.85
2017-10-27T06:41:56.878Z,97.46
2017-10-27T06:42:56.550Z,97.56
2017-10-27T06:43:56.863Z,97.75
2017-10-27T06:44:56.861Z,97.56
2017-10-27T06:45:56.846Z,97.66
2017-10-27T06:46:56.527Z,97.61
2017-10-27T06:47:56.828Z,97.71
2017-10-27T06:48:56.821Z,97.51
2017-10-27T06:49:56.813Z,97.42
2017-10-27T06:50:56.484Z,97.27
2017-10-27T06:51:56.798Z,98.03
2017-10-27T06:52:56.787Z,97.8
2017-10-27T06:53:56.796Z,97.61
2017-10-27T06:54:56.775Z,97.42
2017-10-27T06:55:57.101Z,97.51
2017-10-27T06:56:56.764Z,97.71
2017-10-27T06:57:56.427Z,97.89
2017-10-27T06:58:56.740Z,97.51
2017-10-27T06:59:56.735Z,97.71
2017-10-27T07:00:56.652Z,98.18
2017-10-27T07:01:56.717Z,98.66
2017-10-27T07:02:56.711Z,98.18
2017-10-27T07:03:56.702Z,98.75
2017-10-27T07:04:56.697Z,98.27
2017-10-27T07:05:56.686Z,98.75
2017-10-27T07:06:56.676Z,98.94
2017-10-27T07:07:56.349Z,98.75
2017-10-27T07:08:56.659Z,98.9
2017-10-27T07:09:56.656Z,99.23
2017-10-27T07:10:56.323Z,98.94
2017-10-27T07:11:56.318Z,98.94
2017-10-27T07:12:56.310Z,98.94
2017-10-27T07:13:56.631Z,99.13
2017-10-27T07:14:56.291Z,98.56
2017-10-27T07:15:56.605Z,98.66
2017-10-27T07:16:56.596Z,98.47
2017-10-27T07:17:56.602Z,98.75
2017-10-27T07:18:56.582Z,98.56
2017-10-27T07:19:56.579Z,98.18
2017-10-27T07:20:56.574Z,98.27
2017-10-27T07:21:56.559Z,98.18
2017-10-27T07:22:56.557Z,98.08
2017-10-27T07:23:56.553Z,98.27
2017-10-27T07:24:56.538Z,97.85
2017-10-27T07:25:56.529Z,98.42
2017-10-27T07:26:56.521Z,98.61
2017-10-27T07:27:56.524Z,98.8
2017-10-27T07:28:56.511Z,98.7
2017-10-27T07:29:56.507Z,98.61
2017-10-27T07:30:56.493Z,98.7
2017-10-27T07:31:56.732Z,98.7
2017-10-27T07:32:56.154Z,98.7
2017-10-27T07:33:56.469Z,98.7
2017-10-27T07:34:56.135Z,98.61
2017-10-27T07:35:56.453Z,98.51
2017-10-27T07:36:56.442Z,98.42
2017-10-27T07:37:56.436Z,98.32
2017-10-27T07:38:56.111Z,98.8
2017-10-27T07:39:56.096Z,98.99
2017-10-27T07:40:56.412Z,98.99
2017-10-27T07:41:56.403Z,98.9
2017-10-27T07:42:56.397Z,99.18
2017-10-27T07:43:56.390Z,98.61
2017-10-27T07:44:56.379Z,98.8
2017-10-27T07:45:56.374Z,98.56
2017-10-27T07:46:56.365Z,98.18
2017-10-27T07:47:56.358Z,98.08
2017-10-27T07:48:56.352Z,98.18
2017-10-27T07:49:56.347Z,97.42
2017-10-27T07:50:56.336Z,97.61
2017-10-27T07:51:56.328Z,97.51
2017-10-27T07:52:56.318Z,97.47
2017-10-27T07:53:56.316Z,97.18
2017-10-27T07:54:56.302Z,96.61
2017-10-27T07:55:56.296Z,97.27
2017-10-27T07:56:56.292Z,96.7
2017-10-27T07:57:56.284Z,96.61
2017-10-27T07:58:56.275Z,96.8
2017-10-27T07:59:56.271Z,96.42
2017-10-27T08:00:56.261Z,96.89
2017-10-27T08:01:56.251Z,96.7
2017-10-27T08:02:55.922Z,96.7
2017-10-27T08:03:56.238Z,96.13
2017-10-27T08:04:56.234Z,96.61
2017-10-27T08:05:56.222Z,96.61
2017-10-27T08:06:55.893Z,96.42
2017-10-27T08:07:55.888Z,96.22
2017-10-27T08:08:55.877Z,96.13
2017-10-27T08:09:55.873Z,96.32
2017-10-27T08:10:56.189Z,96.03
2017-10-27T08:11:56.185Z,96.03
2017-10-27T08:12:56.169Z,95.17
2017-10-27T08:13:56.162Z,95.17
2017-10-27T08:14:56.155Z,95.36
2017-10-27T08:15:56.149Z,94.93
2017-10-27T08:16:56.148Z,94.41
2017-10-27T08:17:56.137Z,94.22
2017-10-27T08:18:56.128Z,94.79
2017-10-27T08:19:56.123Z,95.17
2017-10-27T08:20:56.115Z,95.17
2017-10-27T08:21:55.787Z,94.17
2017-10-27T08:22:56.100Z,94.46
2017-10-27T08:23:56.093Z,94.93
2017-10-27T08:24:56.088Z,94.36
2017-10-27T08:25:56.081Z,94.07
2017-10-27T08:26:56.070Z,93.98
2017-10-27T08:27:56.070Z,93.5
2017-10-27T08:28:55.736Z,93.6
2017-10-27T08:29:56.053Z,93.41
2017-10-27T08:30:56.045Z,93.12
2017-10-27T08:31:56.039Z,93.45
2017-10-27T08:32:56.032Z,93.88
2017-10-27T08:33:56.024Z,93.6
2017-10-27T08:34:56.023Z,93.45
2017-10-27T08:35:55.688Z,93.74
2017-10-27T08:36:56.005Z,93.84
2017-10-27T08:37:55.998Z,93.16
2017-10-27T08:38:55.670Z,92.97
2017-10-27T08:39:55.660Z,93.07
2017-10-27T08:40:55.988Z,93.74
2017-10-27T08:41:55.976Z,93.16
2017-10-27T08:42:55.963Z,93.07
2017-10-27T08:43:55.634Z,92.5
2017-10-27T08:44:55.951Z,92.69
2017-10-27T08:45:55.943Z,92.5
2017-10-27T08:46:55.935Z,92.59
2017-10-27T08:47:55.931Z,92.5
2017-10-27T08:48:55.924Z,92.54
2017-10-27T08:49:55.924Z,92.83
2017-10-27T08:50:55.590Z,92.59
2017-10-27T08:51:55.913Z,92.16
2017-10-27T08:52:55.918Z,91.49
2017-10-27T08:53:55.896Z,91.68
2017-10-27T08:54:55.564Z,91.39
2017-10-27T08:55:55.881Z,91.68
2017-10-27T08:56:55.871Z,91.49
2017-10-27T08:57:55.872Z,90.92
2017-10-27T08:58:55.860Z,90.34
2017-10-27T08:59:55.533Z,90.34
2017-10-27T09:00:55.847Z,90.73
2017-10-27T09:01:55.840Z,90.82
2017-10-27T09:02:55.838Z,91.02
2017-10-27T09:03:55.829Z,90.3
2017-10-27T09:04:55.821Z,90.87
2017-10-27T09:05:55.819Z,91.63
2017-10-27T09:06:55.828Z,90.1
2017-10-27T09:07:55.818Z,90.48
2017-10-27T09:08:55.799Z,89.72
2017-10-27T09:09:55.802Z,90.48
2017-10-27T09:10:55.787Z,90.3
2017-10-27T09:11:55.783Z,90.44
2017-10-27T09:12:55.777Z,89.58
2017-10-27T09:13:55.769Z,88.52
2017-10-27T09:14:55.444Z,88.62
2017-10-27T09:15:55.757Z,89.58
2017-10-27T09:16:55.759Z,90.82
2017-10-27T09:17:55.754Z,91.58
2017-10-27T09:18:55.741Z,91.3
2017-10-27T09:19:55.739Z,91.49
2017-10-27T09:20:55.733Z,91.77
2017-10-27T09:21:55.733Z,91.01
2017-10-27T09:22:55.724Z,90.82
2017-10-27T09:23:55.740Z,90.82
2017-10-27T09:24:55.713Z,90.63
2017-10-27T09:25:55.706Z,89.86
2017-10-27T09:26:55.699Z,90.01
2017-10-27T09:27:55.695Z,90.24
2017-10-27T09:28:55.692Z,90.05
2017-10-27T09:29:55.692Z,89.58
2017-10-27T09:30:55.677Z,91.11
2017-10-27T09:31:55.678Z,90.82
2017-10-27T09:32:55.669Z,88.9
2017-10-27T09:33:55.665Z,90.96
2017-10-27T09:34:55.335Z,91.44
2017-10-27T09:35:55.651Z,90.86
2017-10-27T09:36:55.654Z,89.23
2017-10-27T09:37:55.646Z,88.61
2017-10-27T09:38:55.640Z,88.13
2017-10-27T09:39:55.310Z,87.65
2017-10-27T09:40:55.626Z,87.94
2017-10-27T09:41:55.626Z,87.84
2017-10-27T09:42:55.619Z,90.19
2017-10-27T09:43:55.610Z,93.07
2017-10-27T09:44:55.612Z,93.93
2017-10-27T09:45:55.605Z,94.5
2017-10-27T09:46:55.598Z,94.36
2017-10-27T09:47:55.594Z,94.65
2017-10-27T09:48:55.586Z,95.22
2017-10-27T09:49:55.585Z,94.41
2017-10-27T09:50:55.578Z,95.65
2017-10-27T09:51:55.572Z,95.94
2017-10-27T09:52:55.245Z,96.84
2017-10-27T09:53:55.564Z,97.52
2017-10-27T09:54:55.566Z,97.33
2017-10-27T09:55:55.550Z,97.75
2017-10-27T09:56:55.551Z,98.23
2017-10-27T09:57:55.539Z,97.89
2017-10-27T09:58:55.534Z,97.52
2017-10-27T09:59:55.207Z,97.52
2017-10-27T10:00:55.520Z,97.75
2017-10-27T10:01:55.516Z,98.13
2017-10-27T10:02:55.511Z,97.94
2017-10-27T10:03:55.501Z,97.94
2017-10-27T10:04:55.495Z,98.52
2017-10-27T10:05:55.490Z,98.32
2017-10-27T10:06:55.159Z,98.52
2017-10-27T10:07:55.475Z,98.23
2017-10-27T10:08:55.144Z,97.85
2017-10-27T10:09:55.141Z,97.94
2017-10-27T10:10:55.471Z,98.03
2017-10-27T10:11:55.455Z,97.85
2017-10-27T10:12:55.117Z,97.37
2017-10-27T10:13:55.435Z,97.75
2017-10-27T10:14:55.105Z,97.47
2017-10-27T10:15:55.424Z,96.98
2017-10-27T10:16:55.412Z,97.75
2017-10-27T10:17:55.406Z,97.99
2017-10-27T10:18:55.410Z,97.8
2017-10-27T10:19:55.394Z,97.42
2017-10-27T10:20:55.385Z,98.47
2017-10-27T10:21:55.391Z,96.37
2017-10-27T10:22:55.369Z,96.66
2017-10-27T10:23:55.365Z,97.32
2017-10-27T10:24:55.036Z,96.46
2017-10-27T10:25:55.350Z,96.66
2017-10-27T10:26:55.353Z,96.56
2017-10-27T10:27:55.339Z,96.56
2017-10-27T10:28:55.332Z,96.27
2017-10-27T10:29:55.324Z,96.08
2017-10-27T10:30:55.318Z,96.51
2017-10-27T10:31:55.313Z,96.13
2017-10-27T10:32:54.983Z,96.51
2017-10-27T10:33:55.300Z,96.8
2017-10-27T10:34:55.293Z,95.65
2017-10-27T10:35:55.293Z,96.51
2017-10-27T10:36:55.278Z,96.8
2017-10-27T10:37:55.272Z,96.51
2017-10-27T10:38:55.567Z,97.23
2017-10-27T10:39:55.267Z,96.08
2017-10-27T10:40:55.250Z,95.89
2017-10-27T10:41:55.245Z,96.51
2017-10-27T10:42:55.238Z,96.22
2017-10-27T10:43:55.231Z,96.89
2017-10-27T10:44:54.905Z,96.98
2017-10-27T10:45:55.218Z,97.47
2017-10-27T10:46:55.211Z,97.52
2017-10-27T10:47:55.204Z,97.47
2017-10-27T10:48:55.198Z,96.27
2017-10-27T10:49:55.190Z,96.46
2017-10-27T10:50:55.186Z,96.7
2017-10-27T10:51:55.181Z,96.98
2017-10-27T10:52:55.172Z,96.8
2017-10-27T10:53:55.163Z,97.08
2017-10-27T10:54:55.157Z,96.51
2017-10-27T10:55:55.152Z,96.32
2017-10-27T10:56:55.140Z,96.32
2017-10-27T10:57:54.814Z,97.18
2017-10-27T10:58:55.140Z,95.65
2017-10-27T10:59:55.129Z,95.17
2017-10-27T11:00:55.117Z,96.32
2017-10-27T11:01:55.113Z,96.17
2017-10-27T11:02:55.099Z,95.12
2017-10-27T11:03:55.093Z,95.12
2017-10-27T11:04:55.084Z,94.46
2017-10-27T11:05:55.080Z,95.12
2017-10-27T11:06:55.079Z,95.32
2017-10-27T11:07:55.066Z,95.41
2017-10-27T11:08:55.087Z,94.6
2017-10-27T11:09:55.057Z,94.6
2017-10-27T11:10:55.051Z,93.26
2017-10-27T11:11:55.039Z,93.36
2017-10-27T11:12:55.034Z,93.26
2017-10-27T11:13:54.704Z,92.69
2017-10-27T11:14:55.020Z,92.97
2017-10-27T11:15:55.015Z,93.02
2017-10-27T11:16:55.005Z,93.12
2017-10-27T11:17:55.003Z,92.83
2017-10-27T11:18:55.001Z,92.64
2017-10-27T11:19:54.989Z,92.45
2017-10-27T11:20:54.980Z,93.4
2017-10-27T11:21:54.981Z,92.93
2017-10-27T11:22:54.970Z,93.4
2017-10-27T11:23:54.963Z,93.4
2017-10-27T11:24:54.960Z,93.6
2017-10-27T11:25:54.953Z,92.93
2017-10-27T11:26:54.622Z,92.74
2017-10-27T11:27:54.937Z,92.49
2017-10-27T11:28:54.935Z,92.4
2017-10-27T11:29:54.928Z,92.11
2017-10-27T11:30:54.919Z,92.02
2017-10-27T11:31:54.916Z,93.07
2017-10-27T11:32:54.909Z,91.06
2017-10-27T11:33:54.581Z,91.2
2017-10-27T11:34:54.940Z,90.91
2017-10-27T11:35:54.901Z,90.63
2017-10-27T11:36:54.884Z,90.53
2017-10-27T11:37:54.898Z,90.44
2017-10-27T11:38:54.878Z,90.53
2017-10-27T11:39:54.870Z,90.63
2017-10-27T11:40:54.865Z,90.44
2017-10-27T11:41:54.859Z,90.91
2017-10-27T11:42:54.859Z,90.91
2017-10-27T11:43:54.845Z,89.76
2017-10-27T11:44:54.840Z,90.05
2017-10-27T11:45:54.840Z,90.09
2017-10-27T11:46:54.834Z,90.19
2017-10-27T11:47:54.502Z,90.58
2017-10-27T11:48:54.819Z,90.86
2017-10-27T11:49:54.812Z,90.58
2017-10-27T11:50:54.809Z,90.58
2017-10-27T11:51:54.480Z,90.09
2017-10-27T11:52:54.797Z,89.81
2017-10-27T11:53:54.791Z,90.39
2017-10-27T11:54:54.788Z,90.96
2017-10-27T11:55:54.782Z,90.39
2017-10-27T11:56:54.774Z,90.19
2017-10-27T11:57:54.773Z,90.77
2017-10-27T11:58:54.761Z,90.86
2017-10-27T11:59:54.758Z,90.77
2017-10-27T12:00:54.753Z,90.39
2017-10-27T12:01:54.753Z,89.81
2017-10-27T12:02:54.753Z,90
2017-10-27T12:03:54.749Z,89.81
2017-10-27T12:04:54.731Z,90.29
2017-10-27T12:05:54.403Z,90.39
2017-10-27T12:06:54.720Z,90.09
2017-10-27T12:07:54.717Z,89.9
2017-10-27T12:08:54.711Z,90.09
2017-10-27T12:09:54.384Z,88.95
2017-10-27T12:10:54.703Z,89.23
2017-10-27T12:11:54.731Z,89.28
2017-10-27T12:12:54.698Z,89.47
2017-10-27T12:13:54.702Z,89.76
2017-10-27T12:14:54.682Z,89.66
2017-10-27T12:15:54.675Z,89.18
2017-10-27T12:16:54.673Z,88.9
2017-10-27T12:17:54.666Z,87.74
2017-10-27T12:18:54.665Z,87.74
2017-10-27T12:19:54.660Z,88.42
2017-10-27T12:20:54.649Z,88.03
2017-10-27T12:21:54.322Z,88.23
2017-10-27T12:22:54.639Z,87.65
2017-10-27T12:23:54.637Z,88.03
2017-10-27T12:24:54.629Z,88.8
2017-10-27T12:25:54.304Z,88.32
2017-10-27T12:26:54.619Z,88.51
2017-10-27T12:27:54.292Z,88.51
2017-10-27T12:28:54.610Z,89.09
2017-10-27T12:29:54.614Z,88.99
2017-10-27T12:30:54.610Z,88.7
2017-10-27T12:31:54.593Z,88.8
2017-10-27T12:32:54.588Z,88.61
2017-10-27T12:33:54.588Z,88.99
2017-10-27T12:34:54.579Z,88.61
2017-10-27T12:35:54.576Z,88.51
2017-10-27T12:36:54.570Z,88.42
2017-10-27T12:37:54.563Z,88.76
2017-10-27T12:38:54.559Z,89.52
2017-10-27T12:39:54.551Z,89.23
2017-10-27T12:40:54.546Z,89.62
2017-10-27T12:41:54.221Z,89.62
2017-10-27T12:42:54.539Z,89.04
2017-10-27T12:43:54.211Z,90
2017-10-27T12:44:54.534Z,89.52
2017-10-27T12:45:54.521Z,89.72
2017-10-27T12:46:54.522Z,91.11
2017-10-27T12:47:54.510Z,91.01
2017-10-27T12:48:54.506Z,91.68
2017-10-27T12:49:54.506Z,91.2
2017-10-27T12:50:54.530Z,91.2
2017-10-27T12:51:54.489Z,91.11
2017-10-27T12:52:54.168Z,90.91
2017-10-27T12:53:54.482Z,90.91
2017-10-27T12:54:54.471Z,90.82